createdAt,value
2023-04-06T00:02:09.539Z,2.10
2023-04-06T00:04:38.066Z,3.03
2023-04-06T00:07:07.303Z,3.00
2023-04-06T00:09:43.087Z,2.10
2023-04-06T00:12:11.597Z,2.50
2023-04-06T00:14:40.048Z,3.40
2023-04-06T00:17:08.476Z,2.10
2023-04-06T00:19:37.046Z,2.77
2023-04-06T00:22:05.773Z,2.60
2023-04-06T00:24:34.260Z,3.30
2023-04-06T00:27:06.396Z,2.80
2023-04-06T00:29:34.895Z,3.10
2023-04-06T00:32:03.412Z,3.10
2023-04-06T00:34:31.827Z,2.60
2023-04-06T00:37:00.380Z,2.70
2023-04-06T00:39:28.835Z,3.23
2023-04-06T00:41:57.514Z,4.00
2023-04-06T00:44:27.536Z,3.10
2023-04-06T00:46:56.210Z,2.60
2023-04-06T00:49:24.712Z,3.40
2023-04-06T00:51:53.072Z,3.30
2023-04-06T00:54:21.558Z,2.80
2023-04-06T00:56:50.101Z,2.40
2023-04-06T00:59:18.950Z,2.70
2023-04-06T01:01:48.909Z,2.53
2023-04-06T01:04:17.403Z,3.10
2023-04-06T01:06:46.453Z,3.37
2023-04-06T01:09:15.008Z,2.63
2023-04-06T01:11:43.874Z,2.50
2023-04-06T01:14:12.400Z,2.80
2023-04-06T01:16:41.007Z,1.90
2023-04-06T01:19:14.208Z,2.57
2023-04-06T01:21:44.099Z,2.73
2023-04-06T01:24:13.983Z,3.00
2023-04-06T01:26:43.234Z,2.70
2023-04-06T01:29:11.690Z,2.57
2023-04-06T01:31:40.310Z,2.83
2023-04-06T01:34:08.944Z,2.30
2023-04-06T01:36:37.321Z,3.47
2023-04-06T01:39:06.106Z,2.87
2023-04-06T01:41:38.501Z,2.53
2023-04-06T01:44:07.386Z,3.10
2023-04-06T01:46:35.801Z,2.77
2023-04-06T01:49:04.564Z,2.50
2023-04-06T01:51:33.021Z,2.90
2023-04-06T01:54:01.538Z,3.47
2023-04-06T01:56:29.921Z,3.20
2023-04-06T01:59:00.134Z,3.17
2023-04-06T02:01:28.583Z,2.63
2023-04-06T02:03:57.100Z,1.77
2023-04-06T02:06:25.957Z,3.20
2023-04-06T02:08:54.652Z,2.07
2023-04-06T02:11:23.120Z,2.63
2023-04-06T02:13:51.554Z,2.77
2023-04-06T02:16:21.657Z,3.07
2023-04-06T02:18:50.643Z,2.90
2023-04-06T02:21:21.181Z,2.90
2023-04-06T02:23:50.521Z,3.00
2023-04-06T02:26:19.214Z,2.50
2023-04-06T02:28:47.696Z,3.50
2023-04-06T02:31:16.718Z,3.20
2023-04-06T02:33:46.810Z,2.87
2023-04-06T02:36:15.782Z,3.07
2023-04-06T02:38:44.721Z,2.43
2023-04-06T02:41:13.257Z,2.70
2023-04-06T02:43:41.883Z,3.07
2023-04-06T02:46:10.445Z,2.70
2023-04-06T02:48:39.531Z,2.90
2023-04-06T02:51:09.551Z,2.40
2023-04-06T02:53:38.121Z,2.43
2023-04-06T02:56:06.806Z,2.80
2023-04-06T02:58:35.463Z,3.13
2023-04-06T03:01:03.997Z,2.80
2023-04-06T03:03:32.707Z,2.23
2023-04-06T03:06:01.340Z,3.63
2023-04-06T03:08:32.161Z,3.50
2023-04-06T03:11:00.600Z,2.93
2023-04-06T03:13:30.566Z,2.90
2023-04-06T03:15:59.262Z,2.80
2023-04-06T03:18:28.334Z,3.30
2023-04-06T03:20:56.966Z,2.77
2023-04-06T03:23:26.606Z,3.20
2023-04-06T03:25:56.978Z,2.80
2023-04-06T03:28:25.484Z,3.00
2023-04-06T03:30:54.066Z,3.00
2023-04-06T03:33:22.723Z,3.20
2023-04-06T03:35:51.332Z,3.57
2023-04-06T03:38:19.685Z,3.90
2023-04-06T03:40:48.306Z,3.27
2023-04-06T03:43:18.294Z,2.80
2023-04-06T03:45:46.836Z,3.27
2023-04-06T03:48:15.256Z,3.30
2023-04-06T03:50:43.909Z,3.07
2023-04-06T03:53:12.495Z,2.30
2023-04-06T03:55:41.075Z,2.70
2023-04-06T03:58:09.897Z,3.23
2023-04-06T04:00:40.704Z,2.90
2023-04-06T04:03:09.421Z,2.30
2023-04-06T04:05:38.089Z,3.60
2023-04-06T04:08:07.056Z,3.20
2023-04-06T04:10:35.667Z,3.50
2023-04-06T04:13:04.239Z,2.83
2023-04-06T04:15:33.154Z,2.93
2023-04-06T04:18:03.186Z,2.90
2023-04-06T04:20:33.243Z,3.00
2023-04-06T04:23:01.740Z,3.27
2023-04-06T04:25:30.318Z,3.20
2023-04-06T04:27:58.878Z,3.67
2023-04-06T04:30:27.469Z,2.97
2023-04-06T04:32:55.922Z,3.47
2023-04-06T04:35:26.272Z,3.00
2023-04-06T04:37:54.834Z,3.23
2023-04-06T04:40:23.309Z,2.33
2023-04-06T04:42:52.306Z,4.00
2023-04-06T04:45:20.756Z,3.17
2023-04-06T04:47:49.298Z,3.47
2023-04-06T04:50:18.241Z,2.80
2023-04-06T04:52:48.263Z,3.23
2023-04-06T04:55:16.803Z,3.27
2023-04-06T04:57:46.393Z,3.00
2023-04-06T05:00:15.553Z,2.83
2023-04-06T05:02:44.146Z,2.80
2023-04-06T05:05:12.826Z,2.60
2023-04-06T05:07:41.558Z,3.40
2023-04-06T05:10:12.347Z,3.57
2023-04-06T05:12:40.968Z,3.50
2023-04-06T05:15:09.989Z,3.20
2023-04-06T05:17:38.589Z,2.80
2023-04-06T05:20:08.067Z,3.63
2023-04-06T05:22:36.717Z,3.70
2023-04-06T05:25:05.439Z,3.33
2023-04-06T05:27:35.754Z,3.53
2023-04-06T05:30:04.567Z,2.93
2023-04-06T05:32:33.261Z,2.43
2023-04-06T05:35:01.757Z,3.37
2023-04-06T05:37:30.275Z,3.40
2023-04-06T05:39:58.894Z,3.43
2023-04-06T05:42:28.110Z,3.50
2023-04-06T05:44:58.315Z,3.20
2023-04-06T05:47:26.926Z,3.33
2023-04-06T05:49:55.777Z,2.97
2023-04-06T05:52:26.292Z,2.97
2023-04-06T05:54:55.082Z,4.27
2023-04-06T05:57:23.794Z,3.10
2023-04-06T05:59:52.238Z,3.70
2023-04-06T06:02:22.225Z,3.20
2023-04-06T06:04:51.339Z,3.13
2023-04-06T06:07:20.406Z,3.93
2023-04-06T06:09:48.887Z,2.80
2023-04-06T06:12:17.708Z,3.50
2023-04-06T06:14:46.144Z,3.53
2023-04-06T06:17:16.371Z,2.97
2023-04-06T06:19:47.012Z,2.67
2023-04-06T06:22:15.775Z,3.10
2023-04-06T06:24:44.343Z,2.37
2023-04-06T06:27:12.963Z,3.00
2023-04-06T06:29:41.728Z,3.40
2023-04-06T06:32:13.700Z,3.47
2023-04-06T06:34:42.170Z,2.87
2023-04-06T06:37:12.482Z,3.00
2023-04-06T06:39:40.981Z,3.40
2023-04-06T06:42:09.630Z,2.90
2023-04-06T06:44:38.131Z,3.33
2023-04-06T06:47:07.079Z,3.10
2023-04-06T06:49:35.569Z,3.50
2023-04-06T06:52:04.443Z,3.73
2023-04-06T06:54:34.345Z,3.50
2023-04-06T06:57:02.748Z,2.90
2023-04-06T06:59:31.561Z,3.70
2023-04-06T07:02:00.815Z,3.73
2023-04-06T07:04:29.369Z,2.57
2023-04-06T07:06:58.378Z,3.13
2023-04-06T07:09:27.662Z,2.57
2023-04-06T07:11:58.373Z,2.93
2023-04-06T07:14:27.625Z,2.73
2023-04-06T07:16:56.328Z,2.60
2023-04-06T07:19:25.377Z,2.80
2023-04-06T07:21:53.945Z,3.43
2023-04-06T07:24:22.598Z,3.10
2023-04-06T07:26:51.558Z,3.30
2023-04-06T07:29:21.623Z,3.13
2023-04-06T07:31:50.566Z,3.53
2023-04-06T07:34:19.116Z,2.70
2023-04-06T07:36:47.577Z,3.20
2023-04-06T07:39:16.497Z,4.27
2023-04-06T07:41:44.895Z,2.90
2023-04-06T07:44:13.657Z,4.27
2023-04-06T07:46:43.840Z,3.60
2023-04-06T07:49:12.611Z,2.83
2023-04-06T07:51:41.192Z,3.20
2023-04-06T07:54:09.859Z,3.20
2023-04-06T07:56:38.633Z,3.53
2023-04-06T07:59:07.194Z,3.63
2023-04-06T08:01:35.795Z,2.90
2023-04-06T08:04:08.954Z,3.27
2023-04-06T08:06:37.739Z,2.97
2023-04-06T08:09:06.469Z,3.20
2023-04-06T08:11:35.350Z,4.20
2023-04-06T08:14:03.843Z,3.27
2023-04-06T08:16:32.208Z,2.73
2023-04-06T08:19:00.735Z,4.20
2023-04-06T08:21:30.810Z,2.87
2023-04-06T08:23:59.319Z,3.10
2023-04-06T08:26:33.752Z,3.23
2023-04-06T08:29:21.209Z,3.27
2023-04-06T08:35:33.043Z,3.57
2023-04-06T08:38:08.564Z,2.90
2023-04-06T08:40:41.189Z,3.50
2023-04-06T08:43:17.618Z,2.50
2023-04-06T08:45:46.629Z,3.03
2023-04-06T08:54:12.992Z,3.20
2023-04-06T08:56:50.492Z,3.20
2023-04-06T08:59:22.861Z,3.10
2023-04-06T09:01:52.058Z,3.80
2023-04-06T09:04:21.047Z,3.00
2023-04-06T09:06:50.933Z,3.17
2023-04-06T09:09:24.136Z,2.87
2023-04-06T09:11:54.290Z,3.47
2023-04-06T09:14:36.507Z,2.30
2023-04-06T09:17:05.150Z,3.40
2023-04-06T09:19:33.732Z,4.20
2023-04-06T09:22:08.160Z,4.10
2023-04-06T09:24:48.143Z,3.07
2023-04-06T09:27:17.338Z,3.50
2023-04-06T09:29:46.281Z,3.73
2023-04-06T09:32:17.807Z,3.03
2023-04-06T09:34:50.870Z,3.33
2023-04-06T09:37:20.212Z,3.27
2023-04-06T09:39:52.558Z,3.87
2023-04-06T09:42:27.744Z,3.23
2023-04-06T09:44:56.269Z,4.00
2023-04-06T09:47:27.845Z,4.30
2023-04-06T09:49:58.923Z,3.60
2023-04-06T09:52:29.621Z,3.50
2023-04-06T09:55:04.657Z,3.20
2023-04-06T09:57:35.561Z,4.10
2023-04-06T10:00:10.429Z,4.20
2023-04-06T10:02:42.953Z,3.47
2023-04-06T10:05:13.178Z,3.77
2023-04-06T10:07:57.109Z,3.63
2023-04-06T10:10:31.756Z,3.60
2023-04-06T10:13:01.065Z,3.37
2023-04-06T10:15:30.450Z,4.10
2023-04-06T10:17:59.398Z,4.00
2023-04-06T10:20:31.264Z,3.10
2023-04-06T10:23:03.041Z,3.50
2023-04-06T10:25:34.070Z,3.47
2023-04-06T10:28:02.910Z,4.10
2023-04-06T10:30:31.995Z,3.47
2023-04-06T10:33:00.600Z,3.50
2023-04-06T10:35:39.806Z,4.23
2023-04-06T10:38:08.709Z,3.47
2023-04-06T10:40:40.303Z,3.90
2023-04-06T10:43:12.774Z,4.80
2023-04-06T10:45:41.911Z,3.63
2023-04-06T10:48:17.460Z,3.40
2023-04-06T10:50:47.457Z,3.70
2023-04-06T10:53:23.786Z,3.70
2023-04-06T10:55:54.314Z,4.23
2023-04-06T10:58:22.994Z,3.30
2023-04-06T11:00:52.321Z,3.60
2023-04-06T11:03:21.895Z,3.83
2023-04-06T11:05:51.274Z,3.37
2023-04-06T11:08:29.335Z,3.57
2023-04-06T11:11:09.651Z,3.23
2023-04-06T11:13:41.828Z,3.73
2023-04-06T11:16:15.455Z,3.40
2023-04-06T11:18:50.957Z,3.87
2023-04-06T11:21:19.788Z,3.80
2023-04-06T11:23:48.717Z,3.20
2023-04-06T11:26:18.844Z,3.47
2023-04-06T11:28:47.526Z,3.00
2023-04-06T11:31:16.195Z,3.57
2023-04-06T11:33:49.220Z,3.73
2023-04-06T11:36:17.805Z,3.00
2023-04-06T11:38:46.441Z,3.30
2023-04-06T11:41:15.289Z,3.43
2023-04-06T11:44:01.602Z,3.20
2023-04-06T11:46:37.764Z,4.20
2023-04-06T11:49:06.514Z,3.13
2023-04-06T11:51:38.630Z,3.90
2023-04-06T11:54:07.196Z,4.13
2023-04-06T11:56:36.344Z,3.47
2023-04-06T11:59:06.378Z,3.63
2023-04-06T12:01:39.156Z,4.03
2023-04-06T12:04:07.942Z,3.37
2023-04-06T12:06:36.648Z,3.77
2023-04-06T12:09:05.288Z,3.93
2023-04-06T12:11:36.433Z,3.00
2023-04-06T12:14:08.519Z,3.80
2023-04-06T12:16:37.140Z,4.10
2023-04-06T12:19:06.315Z,3.20
2023-04-06T12:21:36.218Z,3.73
2023-04-06T12:24:05.442Z,3.17
2023-04-06T12:26:34.358Z,4.27
2023-04-06T12:29:07.858Z,3.20
2023-04-06T12:31:40.036Z,2.93
2023-04-06T12:34:09.147Z,3.77
2023-04-06T12:39:34.623Z,2.90
2023-04-06T12:42:06.109Z,3.30
2023-04-06T12:44:57.161Z,2.97
2023-04-06T12:47:29.939Z,2.83
2023-04-06T12:49:59.356Z,2.80
2023-04-06T12:52:28.201Z,2.87
2023-04-06T12:54:57.021Z,3.00
2023-04-06T12:57:25.528Z,2.37
2023-04-06T12:59:54.319Z,2.10
2023-04-06T13:02:23.063Z,2.77
2023-04-06T13:04:53.290Z,3.47
2023-04-06T13:07:22.360Z,2.80
2023-04-06T13:09:58.935Z,3.07
2023-04-06T13:12:28.414Z,3.07
2023-04-06T13:14:57.536Z,2.57
2023-04-06T13:17:26.068Z,2.50
2023-04-06T13:19:55.985Z,2.47
2023-04-06T13:22:24.434Z,2.60
2023-04-06T13:24:53.006Z,2.73
2023-04-06T13:27:21.621Z,2.27
2023-04-06T13:29:50.111Z,2.40
2023-04-06T13:32:18.779Z,2.40
2023-04-06T13:34:49.049Z,2.50
2023-04-06T13:37:19.480Z,3.30
2023-04-06T13:39:48.003Z,3.47
2023-04-06T13:42:16.608Z,3.07
2023-04-06T13:44:47.368Z,2.90
2023-04-06T13:47:16.420Z,3.47
2023-04-06T13:49:45.092Z,2.83
2023-04-06T13:52:13.755Z,2.77
2023-04-06T13:54:43.653Z,2.73
2023-04-06T13:57:12.646Z,2.30
2023-04-06T13:59:41.737Z,2.63
2023-04-06T14:02:12.087Z,2.30
2023-04-06T14:04:41.075Z,3.07
2023-04-06T14:07:09.800Z,3.13
2023-04-06T14:09:39.802Z,2.80
2023-04-06T14:12:09.694Z,3.00
2023-04-06T14:14:38.173Z,2.30
2023-04-06T14:17:07.157Z,2.13
2023-04-06T14:19:41.697Z,3.27
2023-04-06T14:22:11.380Z,3.17
2023-04-06T14:24:39.987Z,2.60
2023-04-06T14:27:09.803Z,2.57
2023-04-06T14:29:40.436Z,2.73
2023-04-06T14:32:09.131Z,3.03
2023-04-06T14:34:39.913Z,2.43
2023-04-06T14:37:08.477Z,3.00
2023-04-06T14:39:37.871Z,2.40
2023-04-06T14:42:08.721Z,2.67
2023-04-06T14:44:42.281Z,2.30
2023-04-06T14:47:11.187Z,2.90
2023-04-06T14:49:39.847Z,2.30
2023-04-06T14:52:08.329Z,3.57
2023-04-06T14:54:36.743Z,1.93
2023-04-06T14:57:05.482Z,2.40
2023-04-06T14:59:35.959Z,2.40
2023-04-06T15:02:09.304Z,3.00
2023-04-06T15:04:38.310Z,2.60
2023-04-06T15:07:06.944Z,2.03
2023-04-06T15:09:35.485Z,2.03
2023-04-06T15:12:03.974Z,2.30
2023-04-06T15:14:32.392Z,2.07
2023-04-06T15:17:00.839Z,2.30
2023-04-06T15:19:30.610Z,2.20
2023-04-06T15:22:00.801Z,2.20
2023-04-06T15:24:29.366Z,1.87
2023-04-06T15:26:57.971Z,2.23
2023-04-06T15:29:32.524Z,2.37
2023-04-06T15:32:01.499Z,2.03
2023-04-06T15:34:35.214Z,2.03
2023-04-06T15:37:05.005Z,2.33
2023-04-06T15:39:33.639Z,2.00
2023-04-06T15:42:02.292Z,2.47
2023-04-06T15:44:30.678Z,2.40
2023-04-06T15:46:59.335Z,2.03
2023-04-06T15:49:27.792Z,1.90
2023-04-06T15:52:02.183Z,2.47
2023-04-06T15:54:31.670Z,2.20
2023-04-06T15:57:00.230Z,2.93
2023-04-06T15:59:28.738Z,2.20
2023-04-06T16:01:57.492Z,2.10
2023-04-06T16:04:26.139Z,1.60
2023-04-06T16:06:54.749Z,2.73
2023-04-06T16:09:24.617Z,3.10
2023-04-06T16:11:53.579Z,2.13
2023-04-06T16:14:22.074Z,2.30
2023-04-06T16:16:51.386Z,3.23
2023-04-06T16:19:20.029Z,2.83
2023-04-06T16:21:48.905Z,1.37
2023-04-06T16:24:17.494Z,2.27
2023-04-06T16:26:49.440Z,2.07
2023-04-06T16:29:18.269Z,2.20
2023-04-06T16:31:48.120Z,2.23
2023-04-06T16:34:16.860Z,2.27
2023-04-06T16:36:45.393Z,2.00
2023-04-06T16:39:13.960Z,2.37
2023-04-06T16:41:42.339Z,2.43
2023-04-06T16:44:13.323Z,2.80
2023-04-06T16:46:41.733Z,2.87
2023-04-06T16:49:10.095Z,2.60
2023-04-06T16:51:38.475Z,1.97
2023-04-06T16:54:07.079Z,3.10
2023-04-06T16:56:35.613Z,2.70
2023-04-06T16:59:04.102Z,2.37
2023-04-06T17:01:34.394Z,2.23
2023-04-06T17:04:05.153Z,2.17
2023-04-06T17:06:33.715Z,2.03
2023-04-06T17:09:02.079Z,2.30
2023-04-06T17:11:43.801Z,2.10
2023-04-06T17:14:16.126Z,2.23
2023-04-06T17:16:46.038Z,2.30
2023-04-06T17:19:14.690Z,2.50
2023-04-06T17:21:43.204Z,2.53
2023-04-06T17:24:12.136Z,2.10
2023-04-06T17:26:51.834Z,2.50
2023-04-06T17:29:20.402Z,2.40
2023-04-06T17:31:50.534Z,2.03
2023-04-06T17:34:19.015Z,1.70
2023-04-06T17:36:47.541Z,2.50
2023-04-06T17:39:16.075Z,2.53
2023-04-06T17:41:44.560Z,2.40
2023-04-06T17:44:12.903Z,2.37
2023-04-06T17:46:42.113Z,2.80
2023-04-06T17:49:13.288Z,2.03
2023-04-06T17:51:41.615Z,2.63
2023-04-06T17:54:13.837Z,2.80
2023-04-06T17:56:42.701Z,2.80
2023-04-06T17:59:11.944Z,2.67
2023-04-06T18:01:40.815Z,3.07
2023-04-06T18:04:09.446Z,3.37
2023-04-06T18:06:39.367Z,3.63
2023-04-06T18:09:08.140Z,2.33
2023-04-06T18:11:36.599Z,3.43
2023-04-06T18:14:07.880Z,3.33
2023-04-06T18:16:36.507Z,2.93
2023-04-06T18:19:05.167Z,3.10
2023-04-06T18:21:34.246Z,2.90
2023-04-06T18:24:05.676Z,3.20
2023-04-06T18:26:35.467Z,2.23
2023-04-06T18:29:03.754Z,2.83
2023-04-06T18:31:32.289Z,2.90
2023-04-06T18:34:01.892Z,2.80
2023-04-06T18:36:44.908Z,2.10
2023-04-06T18:39:17.693Z,2.77
2023-04-06T18:41:46.443Z,2.03
2023-04-06T18:44:14.780Z,3.23
2023-04-06T18:46:47.230Z,2.33
2023-04-06T18:49:15.721Z,2.13
2023-04-06T18:51:44.630Z,2.60
2023-04-06T18:54:13.144Z,2.70
2023-04-06T18:56:43.264Z,2.67
2023-04-06T18:59:13.484Z,2.50
2023-04-06T19:01:45.073Z,2.80
2023-04-06T19:04:13.850Z,2.43
2023-04-06T19:06:42.549Z,3.20
2023-04-06T19:09:11.009Z,2.60
2023-04-06T19:11:39.512Z,3.13
2023-04-06T19:14:09.203Z,4.90
2023-04-06T19:16:52.639Z,2.30
2023-04-06T19:19:21.666Z,3.30
2023-04-06T19:21:50.531Z,2.70
2023-04-06T19:24:18.925Z,6.53
2023-04-06T19:26:47.346Z,4.13
2023-04-06T19:29:17.409Z,3.13
2023-04-06T19:31:45.928Z,3.80
2023-04-06T19:34:17.844Z,3.80
2023-04-06T19:36:46.958Z,3.67
2023-04-06T19:39:18.047Z,3.03
2023-04-06T19:41:47.014Z,2.93
2023-04-06T19:44:17.052Z,3.17
2023-04-06T19:46:50.806Z,3.80
2023-04-06T19:49:19.542Z,4.20
2023-04-06T19:51:48.008Z,3.80
2023-04-06T19:54:16.676Z,3.00
2023-04-06T19:56:50.912Z,4.30
2023-04-06T19:59:21.882Z,3.73
2023-04-06T20:01:52.364Z,3.87
2023-04-06T20:04:20.869Z,2.70
2023-04-06T20:06:49.303Z,2.73
2023-04-06T20:09:17.661Z,2.83
2023-04-06T20:11:46.029Z,4.53
2023-04-06T20:14:15.557Z,3.20
2023-04-06T20:16:45.489Z,4.10
2023-04-06T20:19:14.421Z,3.80
2023-04-06T20:21:43.908Z,3.60
2023-04-06T20:24:12.534Z,4.97
2023-04-06T20:26:41.012Z,4.90
2023-04-06T20:29:09.538Z,5.07
2023-04-06T20:31:38.058Z,5.40
2023-04-06T20:34:08.239Z,5.50
2023-04-06T20:39:32.515Z,4.20
2023-04-06T20:42:23.652Z,4.90
2023-04-06T20:48:17.598Z,3.90
2023-04-06T20:50:52.881Z,4.33
2023-04-06T20:56:25.241Z,4.50
2023-04-06T20:58:53.932Z,4.30
2023-04-06T21:01:40.298Z,4.67
2023-04-06T21:04:09.143Z,4.43
2023-04-06T21:09:42.514Z,4.97
2023-04-06T21:12:33.680Z,4.97
2023-04-06T21:18:06.822Z,4.37
2023-04-06T21:20:42.054Z,4.87
2023-04-06T21:23:21.358Z,4.40
2023-04-06T21:25:51.953Z,5.70
2023-04-06T21:31:20.660Z,4.80
2023-04-06T21:33:53.217Z,5.60
2023-04-06T21:36:27.840Z,4.63
2023-04-06T21:38:57.189Z,5.13
2023-04-06T21:51:02.628Z,4.77
2023-04-06T21:56:27.994Z,4.23
2023-04-06T21:59:03.028Z,3.97
2023-04-06T22:07:11.991Z,3.83
2023-04-06T22:12:31.664Z,4.37
2023-04-06T22:18:21.609Z,3.30
2023-04-06T22:23:48.105Z,3.30
2023-04-06T22:32:14.178Z,3.53
2023-04-06T22:40:22.978Z,2.93
2023-04-06T22:43:15.979Z,3.50
2023-04-06T22:45:44.677Z,3.10
2023-04-06T22:48:13.496Z,3.10
2023-04-06T22:50:41.838Z,2.93
2023-04-06T22:53:10.438Z,2.60
2023-04-06T22:55:42.481Z,2.80
2023-04-06T22:58:10.978Z,3.20
2023-04-06T23:00:39.361Z,2.70
2023-04-06T23:03:07.972Z,3.43
2023-04-06T23:05:36.590Z,2.57
2023-04-06T23:08:04.980Z,4.33
2023-04-06T23:10:33.307Z,3.70
2023-04-06T23:13:03.065Z,3.30
2023-04-06T23:15:31.491Z,3.53
2023-04-06T23:17:59.960Z,2.70
2023-04-06T23:20:28.376Z,2.77
2023-04-06T23:22:56.891Z,3.07
2023-04-06T23:25:25.608Z,3.60
2023-04-06T23:27:53.858Z,3.10
2023-04-06T23:30:24.017Z,2.70
2023-04-06T23:32:52.520Z,2.50
2023-04-06T23:35:20.962Z,2.67
2023-04-06T23:37:49.338Z,2.90
2023-04-06T23:40:18.142Z,2.70
2023-04-06T23:42:46.433Z,3.30
2023-04-06T23:45:14.840Z,2.43
2023-04-06T23:47:45.958Z,2.83
2023-04-06T23:50:14.366Z,2.50
2023-04-06T23:52:42.680Z,2.67
2023-04-06T23:55:11.554Z,3.00
2023-04-06T23:57:40.137Z,2.40
